Have a Safe July 4th! 

Flight Track Log - Related Links

Times and Time Zones

All times are in EDT time to prevent confusion due to time zone crossing. See the UPS1214 flight status page for this flight to view local times or setup timezone preferences in your user account.

Time Position Orientation Groundspeed Altitude Reporting Facility
EDT Latitude Longitude Course Direction KTS MPH feet Rate Location/Type
Fri 04:23:42 AM 38.1550 -85.7210 165° South 151 174 2,100  Level FlightAware ADS-B
Fri 04:24:07 AM 38.1360 -85.7120 160° South 193 222 2,600 1,855 Climbing FlightAware ADS-B
Fri 04:24:37 AM 38.1090 -85.6990 159° South 219 252 3,800 2,700 Climbing FlightAware ADS-B
Fri 04:25:07 AM 38.0780 -85.6860 162° South 239 275 5,300 3,200 Climbing FlightAware ADS-B
Fri 04:25:22 AM 38.0610 -85.6790 162° South 243 280 6,200 2,700 Climbing FlightAware ADS-B
Fri 04:25:47 AM 38.0370 -85.6630 152° Southeast 272 313 7,100 2,700 Climbing FlightAware ADS-B
Fri 04:26:02 AM 38.0280 -85.6390 115° Southeast 277 319 8,000 3,400 Climbing FlightAware ADS-B
Fri 04:26:17 AM 38.0260 -85.6160 96° East 277 319 8,800 2,743 Climbing FlightAware ADS-B
Fri 04:26:37 AM 38.0250 -85.5850 92° East 288 331 9,600 2,700 Climbing FlightAware ADS-B
Fri 04:26:57 AM 38.0310 -85.5490 78° East 304 350 10,600 2,492 Climbing FlightAware ADS-B
Fri 04:27:42 AM 38.0550 -85.4660 70° East 356 410 12,300 2,824 Climbing FlightAware ADS-B
Fri 04:28:22 AM 38.0780 -85.3840 70° East 381 438 14,600 3,600 Climbing FlightAware ADS-B
Fri 04:29:02 AM 38.1040 -85.2980 69° East 395 455 17,100 3,459 Climbing FlightAware ADS-B
Fri 04:29:47 AM 38.1330 -85.2000 69° East 413 475 19,500 3,247 Climbing FlightAware ADS-B
Fri 04:30:27 AM 38.1600 -85.1080 70° East 421 484 21,700 2,894 Climbing FlightAware ADS-B
Fri 04:31:12 AM 38.1910 -85.0000 70° East 441 507 23,600 2,550 Climbing FlightAware ADS-B
Fri 04:31:47 AM 38.2160 -84.9160 69° East 451 519 25,100 2,475 Climbing FlightAware ADS-B
Fri 04:32:32 AM 38.2500 -84.7990 70° East 466 536 26,900 2,333 Climbing FlightAware ADS-B
Fri 04:33:17 AM 38.2830 -84.6850 70° East 478 550 28,600 2,471 Climbing FlightAware ADS-B
Fri 04:33:57 AM 38.3140 -84.5780 70° East 478 550 30,400 2,475 Climbing FlightAware ADS-B
Fri 04:34:37 AM 38.3430 -84.4780 70° East 479 551 31,900 1,579 Climbing FlightAware ADS-B
Fri 04:35:32 AM 38.3840 -84.3350 70° East 483 556 32,900 632 Climbing FlightAware ADS-B
Fri 04:36:12 AM 38.4100 -84.2430 70° East 483 556 32,900 67 Level FlightAware ADS-B
Fri 04:37:02 AM 38.4530 -84.0910 70° East 499 574 33,000 75 Climbing FlightAware ADS-B
Fri 04:37:32 AM 38.4770 -84.0060 70° East 488 562 33,000  Level FlightAware ADS-B
Fri 04:38:17 AM 38.5100 -83.8930 70° East 488 562 33,000  Level FlightAware ADS-B
Fri 04:39:07 AM 38.5420 -83.7780 70° East 488 562 33,000  Level FlightAware ADS-B
Fri 04:39:47 AM 38.5690 -83.6850 70° East 488 562 33,000  Level FlightAware ADS-B
Fri 04:40:27 AM 38.5950 -83.5930 70° East 488 562 33,000  Level FlightAware ADS-B
Fri 04:41:07 AM 38.6210 -83.5010 70° East 488 562 33,000  Level FlightAware ADS-B
Fri 04:41:47 AM 38.6470 -83.4080 70° East 488 562 33,000  Level FlightAware ADS-B
Fri 04:42:27 AM 38.6740 -83.3160 69° East 488 562 33,000  Level FlightAware ADS-B
Fri 04:43:17 AM 38.7060 -83.2010 70° East 488 562 33,000  Level FlightAware ADS-B
Fri 04:43:57 AM 38.7630 -82.9740 72° East 476 548 33,000  Level FlightAware ADS-B
Fri 04:44:47 AM 38.7960 -82.8530 71° East 477 549 33,000  Level FlightAware ADS-B
Fri 04:45:37 AM 38.8350 -82.7080 71° East 478 550 33,000  Level FlightAware ADS-B
Fri 04:46:17 AM 38.8630 -82.6040 71° East 479 551 33,000  Level FlightAware ADS-B
Fri 04:47:02 AM 38.8950 -82.4820 71° East 479 551 33,000  Level FlightAware ADS-B
Fri 04:47:37 AM 38.9180 -82.3940 71° East 478 550 33,000  Level FlightAware ADS-B
Fri 04:48:22 AM 38.9510 -82.2700 71° East 479 551 33,000  Level FlightAware ADS-B
Fri 04:49:22 AM 38.9960 -82.1020 71° East 479 551 33,000  Level FlightAware ADS-B
Fri 04:50:02 AM 39.0230 -81.9980 71° East 478 550 33,000  Level FlightAware ADS-B
Fri 04:50:42 AM 39.0500 -81.8940 71° East 478 550 33,000  Level FlightAware ADS-B
Fri 04:51:27 AM 39.0820 -81.7690 72° East 478 550 33,000  Level FlightAware ADS-B
Fri 04:52:07 AM 39.1100 -81.6610 71° East 478 550 33,000  Level FlightAware ADS-B
Fri 04:52:47 AM 39.1380 -81.5520 72° East 477 549 33,000  Level FlightAware ADS-B
Fri 04:53:32 AM 39.1700 -81.4280 72° East 477 549 33,000  Level FlightAware ADS-B
Fri 04:54:12 AM 39.1970 -81.3220 72° East 478 550 33,000  Level FlightAware ADS-B
Fri 04:54:57 AM 39.2250 -81.2080 72° East 478 550 33,000  Level FlightAware ADS-B
Fri 04:55:37 AM 39.2520 -81.1030 72° East 478 550 33,000  Level FlightAware ADS-B
Fri 04:56:17 AM 39.2810 -80.9880 72° East 477 549 33,000  Level FlightAware ADS-B
Fri 04:57:02 AM 39.3070 -80.8590 75° East 477 549 33,000  Level FlightAware ADS-B
Fri 04:57:42 AM 39.3140 -80.7460 85° East 475 547 33,000  Level FlightAware ADS-B
Fri 04:58:27 AM 39.3200 -80.6360 86° East 475 547 33,000  Level FlightAware ADS-B
Fri 04:59:22 AM 39.3250 -80.4800 88° East 475 547 33,000  Level FlightAware ADS-B
Fri 04:59:58 AM 39.3328 -80.3842 88° East 466 536 33,000  Level Washington Center
Fri 05:00:21 AM 39.3303 -80.3033 92° East 475 547 33,000  Level Indianapolis Center
Fri 05:01:01 AM 39.3394 -80.2156 82° East 461 531 33,000  Level Washington Center
Fri 05:01:58 AM 39.3439 -80.0414 88° East 461 531 33,000  Level Washington Center
Fri 05:02:58 AM 39.3478 -79.8750 88° East 466 536 33,000  Level Washington Center
Fri 05:03:59 AM 39.3517 -79.7036 88° East 466 536 33,000  Level Washington Center
Fri 05:04:59 AM 39.3575 -79.5347 87° East 466 536 33,000 -1,137 Level Washington Center
Fri 05:11:17 AM 39.3770 -78.4480 87° East 456 525 24,700 -1,447 Descending FlightAware ADS-B
Fri 05:12:02 AM 39.3790 -78.3290 89° East 446 513 22,800 -2,541 Descending FlightAware ADS-B
Fri 05:12:42 AM 39.3810 -78.2190 89° East 437 503 21,100 -2,625 Descending FlightAware ADS-B
Fri 05:13:22 AM 39.3820 -78.1180 89° East 427 491 19,300 -2,700 Descending FlightAware ADS-B
Fri 05:14:02 AM 39.3850 -78.0170 88° East 421 484 17,500 -2,259 Descending FlightAware ADS-B
Fri 05:14:47 AM 39.3950 -77.9040 83° East 411 473 16,100 -1,906 Descending FlightAware ADS-B
Fri 05:15:27 AM 39.4060 -77.8090 81° East 401 461 14,800 -2,250 Descending FlightAware ADS-B
Fri 05:16:07 AM 39.4170 -77.7150 81° East 392 451 13,100 -2,259 Descending FlightAware ADS-B
Fri 05:16:52 AM 39.4280 -77.6130 82° East 374 430 11,600 -1,800 Descending FlightAware ADS-B
Fri 05:17:27 AM 39.4350 -77.5500 82° East 372 428 10,700 -988 Descending FlightAware ADS-B
Fri 05:18:17 AM 39.4470 -77.4400 82° East 370 426 10,200 -640 Descending FlightAware ADS-B
Fri 05:18:42 AM 39.4520 -77.3880 83° East 345 397 9,900 -750 Descending FlightAware ADS-B
Fri 05:18:57 AM 39.4550 -77.3600 82° East 334 384 9,700 -533 Descending FlightAware ADS-B
Fri 05:19:27 AM 39.4600 -77.3020 84° East 299 344 9,500 -1,100 Descending FlightAware ADS-B
Fri 05:19:57 AM 39.4540 -77.2470 98° East 263 303 8,600 -1,745 Descending FlightAware ADS-B
Fri 05:20:22 AM 39.4460 -77.2100 106° East 266 306 7,900 -1,636 Descending FlightAware ADS-B
Fri 05:20:52 AM 39.4340 -77.1640 109° East 265 305 7,100 -1,418 Descending FlightAware ADS-B
Fri 05:21:17 AM 39.4260 -77.1310 107° East 260 299 6,600 -1,309 Descending FlightAware ADS-B
Fri 05:21:47 AM 39.4170 -77.0900 106° East 258 297 5,900 -1,418 Descending FlightAware ADS-B
Fri 05:22:12 AM 39.4070 -77.0530 109° East 255 293 5,300 -1,418 Descending FlightAware ADS-B
Fri 05:22:42 AM 39.3970 -77.0090 106° East 249 287 4,600 -1,418 Descending FlightAware ADS-B
Fri 05:23:07 AM 39.3880 -76.9740 108° East 244 281 4,000 -1,440 Descending FlightAware ADS-B
Fri 05:23:32 AM 39.3790 -76.9370 107° East 242 278 3,400 -1,100 Descending FlightAware ADS-B
Fri 05:24:07 AM 39.3690 -76.8970 108° East 229 264 2,900 -738 Descending FlightAware ADS-B
Fri 05:24:37 AM 39.3590 -76.8580 108° East 204 235 2,600 -257 Descending FlightAware ADS-B
Fri 05:25:17 AM 39.3390 -76.8240 127° Southeast 166 191 2,600 92 Level FlightAware ADS-B
Fri 05:25:42 AM 39.3220 -76.8080 144° Southeast 166 191 2,700  Climbing FlightAware ADS-B
Fri 05:26:12 AM 39.3060 -76.7930 144° Southeast 144 166 2,600 -120 Descending FlightAware ADS-B
Fri 05:26:32 AM 39.2960 -76.7840 145° Southeast 147 169 2,600 -554 Level FlightAware ADS-B
Fri 05:27:17 AM 39.2710 -76.7620 146° Southeast 143 165 2,000 -831 Descending FlightAware ADS-B
Fri 05:27:37 AM 39.2600 -76.7520 145° Southeast 140 161 1,700 -480 Descending FlightAware ADS-B
Fri 05:28:07 AM 39.2470 -76.7390 142° Southeast 133 153 1,600 -391 Descending FlightAware ADS-B
Fri 05:28:23 AM 39.2333 -76.7333 142° Southeast 130 150 1,400 -711 Descending Potomac TRACON
Fri 05:29:23 AM 39.2000 -76.7000 142° Southeast 131 151 700 -700 Descending Potomac TRACON
Fri 05:31:00 AM 39.1754 -76.6683 142° Southeast  Level Estimated
Fri 05:38:00 AM 39.1754 -76.6683 142° Southeast  Level Estimated
Fri 05:39:00 AM 39.1754 -76.6683 142° Southeast  Level Estimated
Fri 05:40:00 AM 39.1754 -76.6683 142° Southeast  Level Estimated
Fri 05:41:00 AM 39.1754 -76.6683 142° Southeast  Level Estimated
Fri 05:42:00 AM 39.1754 -76.6683 142° Southeast  Level Estimated

Login

Don't have an account? Register now (free) for customized features, flight alerts, and more!